Time;durP1;ratioP1;P1;durP2;ratioP2;P2;SDS_P1;SDS_P2;PMS_P1;PMS_P2;Temp;Humidity;BMP_temperature;BMP_pressure;BME280_temperature;BME280_humidity;BME280_pressure;Samples;Min_cycle;Max_cycle;Signal;HPM_P1;HPM_P2
2021/10/14 00:00:13;;;;;;;3.38;1.13;;;26.20;20.00;;;;;;5049527;28;20070;-66
2021/10/14 00:02:40;;;;;;;16.33;2.92;;;26.20;20.40;;;;;;5048571;28;20074;-66
2021/10/14 00:05:06;;;;;;;3.42;1.42;;;26.00;19.70;;;;;;5052294;28;20082;-64
2021/10/14 00:07:33;;;;;;;7.82;1.00;;;25.90;19.60;;;;;;5031620;28;21466;-66
2021/10/14 00:09:59;;;;;;;4.93;1.02;;;25.70;19.90;;;;;;5047868;28;20089;-67
2021/10/14 00:12:25;;;;;;;11.23;0.80;;;25.70;20.30;;;;;;5048076;28;20117;-67
2021/10/14 00:14:52;;;;;;;4.53;0.70;;;25.80;20.40;;;;;;5048433;28;20098;-65
2021/10/14 00:17:18;;;;;;;7.60;1.23;;;25.70;20.10;;;;;;5043322;28;20620;-65
2021/10/14 00:19:45;;;;;;;6.35;1.10;;;25.60;20.10;;;;;;5048113;28;20167;-65
2021/10/14 00:22:11;;;;;;;5.72;1.05;;;25.50;19.90;;;;;;5044648;28;20093;-65
2021/10/14 00:24:38;;;;;;;4.78;1.35;;;25.40;20.20;;;;;;5049075;28;20081;-70
2021/10/14 00:27:04;;;;;;;5.35;0.90;;;25.40;20.50;;;;;;5048767;28;20085;-67
2021/10/14 00:29:30;;;;;;;9.82;0.98;;;25.30;20.50;;;;;;5046130;28;20139;-69
2021/10/14 00:31:57;;;;;;;4.25;1.05;;;25.30;21.20;;;;;;5048143;28;20090;-67
2021/10/14 00:34:23;;;;;;;9.88;1.05;;;25.20;20.60;;;;;;5047533;28;20123;-67
2021/10/14 00:36:50;;;;;;;6.70;1.17;;;25.10;20.50;;;;;;5047501;28;20212;-68
2021/10/14 00:39:16;;;;;;;6.15;0.90;;;25.10;20.70;;;;;;5048546;28;20066;-69
2021/10/14 00:41:42;;;;;;;8.23;0.90;;;25.00;20.80;;;;;;5048301;28;20112;-66
2021/10/14 00:44:09;;;;;;;7.32;1.20;;;25.00;21.10;;;;;;5053118;28;20477;-69
2021/10/14 00:46:35;;;;;;;9.90;1.33;;;24.90;20.90;;;;;;5034559;28;20089;-66
2021/10/14 00:49:02;;;;;;;7.25;0.90;;;24.80;21.40;;;;;;5052249;28;20645;-67
2021/10/14 00:51:29;;;;;;;9.48;1.02;;;24.70;21.70;;;;;;5053159;28;20082;-68
2021/10/14 00:53:55;;;;;;;8.90;1.20;;;24.70;22.40;;;;;;5051006;28;20096;-66
2021/10/14 00:56:22;;;;;;;8.82;1.10;;;24.60;21.80;;;;;;5052253;28;20172;-68
2021/10/14 00:58:49;;;;;;;5.97;1.45;;;24.50;21.70;;;;;;5047990;28;20101;-68
2021/10/14 01:01:15;;;;;;;8.25;1.15;;;24.50;22.20;;;;;;5034181;28;20164;-69
2021/10/14 01:03:41;;;;;;;7.45;1.25;;;24.50;22.00;;;;;;5051582;28;20085;-67
2021/10/14 01:06:08;;;;;;;11.68;1.10;;;24.40;22.40;;;;;;5050394;28;20073;-66
2021/10/14 01:08:36;;;;;;;7.45;1.38;;;24.30;23.00;;;;;;5051979;28;20164;-69
2021/10/14 01:11:02;;;;;;;12.23;1.58;;;24.10;22.90;;;;;;5051446;28;20085;-67
2021/10/14 01:13:28;;;;;;;11.25;1.77;;;24.00;22.70;;;;;;5035035;28;20093;-69
2021/10/14 01:15:55;;;;;;;8.25;1.33;;;23.90;22.80;;;;;;5051166;28;20092;-68
2021/10/14 01:18:21;;;;;;;7.40;1.25;;;23.90;23.20;;;;;;5052274;28;20080;-67
2021/10/14 01:20:47;;;;;;;6.80;1.20;;;23.80;23.70;;;;;;5051250;28;20554;-68
2021/10/14 01:23:14;;;;;;;6.28;1.60;;;23.60;24.10;;;;;;5053149;28;20111;-67
2021/10/14 01:25:44;;;;;;;8.88;1.50;;;23.60;24.40;;;;;;5052010;28;20527;-67
2021/10/14 01:28:10;;;;;;;6.57;1.50;;;23.40;24.60;;;;;;5050469;28;20637;-66
2021/10/14 01:30:37;;;;;;;10.45;1.60;;;23.40;25.00;;;;;;5050883;28;20459;-66
2021/10/14 01:33:03;;;;;;;8.15;1.60;;;23.20;24.60;;;;;;5049724;28;20097;-67
2021/10/14 01:35:29;;;;;;;20.30;2.58;;;23.10;24.90;;;;;;5052207;28;20109;-66
2021/10/14 01:37:56;;;;;;;20.50;2.80;;;23.10;25.30;;;;;;5050998;28;20086;-65
2021/10/14 01:40:22;;;;;;;22.52;3.33;;;23.00;25.40;;;;;;5050944;28;20454;-67
2021/10/14 01:42:49;;;;;;;26.33;3.38;;;22.90;25.50;;;;;;5050861;28;20069;-66
2021/10/14 01:45:15;;;;;;;34.72;3.55;;;22.90;25.80;;;;;;5050538;28;20072;-68
2021/10/14 01:47:42;;;;;;;34.92;4.13;;;22.80;26.30;;;;;;5051718;28;20078;-67
2021/10/14 01:50:09;;;;;;;29.45;4.07;;;22.70;26.40;;;;;;5051951;28;20069;-66
2021/10/14 01:52:35;;;;;;;33.28;4.30;;;22.70;26.40;;;;;;5050704;28;20140;-65
2021/10/14 01:55:02;;;;;;;41.13;4.63;;;22.60;27.00;;;;;;5048836;28;20078;-65
2021/10/14 01:57:28;;;;;;;24.63;3.67;;;22.50;27.30;;;;;;5051445;28;20439;-65
2021/10/14 01:59:54;;;;;;;26.60;3.90;;;22.50;27.40;;;;;;5066866;28;20073;-70
2021/10/14 02:02:21;;;;;;;29.52;4.72;;;22.40;28.10;;;;;;5050298;28;20122;-67
2021/10/14 02:04:47;;;;;;;45.22;5.30;;;22.30;28.10;;;;;;5051649;28;20086;-64
2021/10/14 02:07:14;;;;;;;37.15;4.18;;;22.20;28.30;;;;;;5051548;28;20088;-67
2021/10/14 02:09:40;;;;;;;37.33;5.13;;;22.20;28.60;;;;;;5051419;28;20096;-66
2021/10/14 02:12:06;;;;;;;30.17;3.80;;;22.20;28.60;;;;;;5051211;28;20132;-67
2021/10/14 02:14:33;;;;;;;44.97;4.60;;;22.10;29.00;;;;;;5051608;28;20188;-70
2021/10/14 02:16:59;;;;;;;44.30;4.30;;;22.00;28.90;;;;;;5050341;28;20078;-68
2021/10/14 02:19:25;;;;;;;34.17;4.35;;;21.90;28.80;;;;;;5017633;28;20192;-67
2021/10/14 02:21:52;;;;;;;48.20;14.45;;;21.80;28.80;;;;;;5050240;28;20172;-62
2021/10/14 02:24:18;;;;;;;52.88;20.17;;;21.80;28.50;;;;;;5033698;28;20189;-65
2021/10/14 02:26:44;;;;;;;;;;;21.80;28.40;;;;;;5051437;28;20550;-64
2021/10/14 02:29:12;;;;;;;53.17;13.70;;;21.70;28.40;;;;;;5050892;28;19993;-70
2021/10/14 02:31:40;;;;;;;41.92;10.70;;;21.70;28.80;;;;;;5049950;28;20089;-66
2021/10/14 02:34:07;;;;;;;34.25;10.48;;;21.60;29.00;;;;;;5050343;28;20108;-65
2021/10/14 02:36:34;;;;;;;29.77;8.25;;;21.60;29.60;;;;;;5033320;28;20485;-66
2021/10/14 02:39:00;;;;;;;49.30;8.73;;;21.60;29.80;;;;;;5050080;28;20139;-68
2021/10/14 02:41:27;;;;;;;37.00;7.55;;;21.50;29.90;;;;;;5049508;28;20104;-67
2021/10/14 02:43:53;;;;;;;26.33;6.80;;;21.50;30.00;;;;;;5050044;28;20073;-65
2021/10/14 02:46:19;;;;;;;;;;;21.40;30.30;;;;;;5050573;28;20093;-68
2021/10/14 02:48:45;;;;;;;44.95;6.85;;;21.40;30.40;;;;;;5049605;28;20383;-67
2021/10/14 02:51:11;;;;;;;;;;;21.40;30.20;;;;;;5050061;28;20541;-69
2021/10/14 02:53:38;;;;;;;27.65;5.15;;;21.30;31.00;;;;;;5049807;28;19981;-67
2021/10/14 02:56:04;;;;;;;;;;;21.30;30.30;;;;;;5050785;28;20158;-68
2021/10/14 02:58:30;;;;;;;43.30;6.35;;;21.20;30.50;;;;;;5050241;28;19964;-67
2021/10/14 03:00:56;;;;;;;;;;;21.10;31.50;;;;;;5050782;28;20159;-65
2021/10/14 03:03:23;;;;;;;42.20;4.40;;;21.00;30.70;;;;;;5049449;28;19981;-68
2021/10/14 03:05:49;;;;;;;;;;;21.00;30.50;;;;;;5049063;28;20552;-68
2021/10/14 03:08:15;;;;;;;43.08;5.55;;;21.00;30.70;;;;;;5051715;28;20480;-67
2021/10/14 03:10:41;;;;;;;31.02;5.35;;;20.90;30.80;;;;;;5061619;28;20081;-67
2021/10/14 03:13:07;;;;;;;;;;;21.00;31.50;;;;;;5049498;28;20093;-70
2021/10/14 03:15:34;;;;;;;32.80;5.70;;;20.90;32.40;;;;;;5049698;28;19977;-68
2021/10/14 03:18:00;;;;;;;50.80;5.72;;;20.80;31.60;;;;;;5049581;28;20108;-67
2021/10/14 03:20:26;;;;;;;;;;;20.80;31.40;;;;;;5032474;28;20069;-66
2021/10/14 03:22:52;;;;;;;49.78;7.15;;;20.70;31.10;;;;;;5049658;28;20051;-65
2021/10/14 03:25:19;;;;;;;29.98;4.93;;;20.60;31.20;;;;;;5049511;28;20077;-66
2021/10/14 03:27:45;;;;;;;;;;;20.60;30.90;;;;;;5049376;28;20093;-67
2021/10/14 03:30:11;;;;;;;37.80;5.60;;;20.50;31.70;;;;;;5050771;28;19957;-65
2021/10/14 03:32:38;;;;;;;55.03;6.20;;;20.50;31.80;;;;;;5062300;28;20568;-66
2021/10/14 03:35:04;;;;;;;40.03;5.72;;;20.40;32.30;;;;;;5049168;28;20113;-68
2021/10/14 03:37:31;;;;;;;34.00;5.18;;;20.40;32.60;;;;;;5048698;28;20069;-66
2021/10/14 03:39:57;;;;;;;43.60;5.90;;;20.40;34.30;;;;;;5049052;28;20072;-65
2021/10/14 03:42:23;;;;;;;;;;;20.40;32.50;;;;;;5056522;28;20112;-68
2021/10/14 03:44:51;;;;;;;40.45;6.57;;;20.40;33.50;;;;;;5048956;28;20034;-66
2021/10/14 03:47:18;;;;;;;;;;;20.30;32.70;;;;;;5054022;28;20108;-65
2021/10/14 03:49:44;;;;;;;29.55;6.88;;;20.30;32.50;;;;;;5051428;28;19973;-68
2021/10/14 03:52:10;;;;;;;38.78;6.18;;;20.30;33.10;;;;;;5064864;28;20085;-65
2021/10/14 03:54:36;;;;;;;;;;;20.20;33.20;;;;;;5049828;28;20080;-68
2021/10/14 03:57:03;;;;;;;36.75;7.00;;;20.20;33.50;;;;;;5050465;28;20409;-67
2021/10/14 03:59:29;;;;;;;48.05;6.72;;;20.10;33.50;;;;;;5049032;28;20082;-67
2021/10/14 04:01:55;;;;;;;;;;;20.20;33.70;;;;;;5049892;28;20173;-67
2021/10/14 04:04:23;;;;;;;41.60;7.63;;;20.20;34.20;;;;;;5050147;28;20040;-66
2021/10/14 04:06:49;;;;;;;45.85;7.78;;;20.20;33.40;;;;;;5049433;28;20107;-68
2021/10/14 04:09:16;;;;;;;52.47;9.63;;;20.10;33.60;;;;;;5048422;28;20078;-66
2021/10/14 04:11:42;;;;;;;51.83;12.07;;;20.10;34.40;;;;;;5049110;28;20586;-68
2021/10/14 04:14:08;;;;;;;;;;;20.00;33.50;;;;;;5049328;28;20103;-69
2021/10/14 04:16:34;;;;;;;56.55;16.27;;;20.00;34.20;;;;;;5049477;28;20368;-68
2021/10/14 04:19:00;;;;;;;;;;;19.90;33.70;;;;;;5049169;28;20069;-66
2021/10/14 04:21:27;;;;;;;61.85;15.32;;;19.90;33.60;;;;;;5048965;28;19957;-67
2021/10/14 04:23:55;;;;;;;57.63;15.05;;;20.00;33.60;;;;;;5049001;28;20563;-65
2021/10/14 04:26:22;;;;;;;69.88;16.55;;;19.90;33.90;;;;;;5048558;28;20082;-65
2021/10/14 04:28:48;;;;;;;58.78;17.02;;;19.90;35.40;;;;;;5049635;28;20501;-64
2021/10/14 04:31:14;;;;;;;;;;;19.90;35.20;;;;;;5049461;28;20089;-65
2021/10/14 04:33:41;;;;;;;63.42;14.25;;;19.90;35.10;;;;;;5048894;28;20022;-67
2021/10/14 04:36:08;;;;;;;70.43;14.55;;;19.90;35.00;;;;;;5048417;28;20136;-66
2021/10/14 04:38:34;;;;;;;51.35;13.43;;;19.90;34.60;;;;;;5049724;28;20197;-63
2021/10/14 04:41:00;;;;;;;71.78;12.02;;;19.90;35.20;;;;;;5032627;28;20090;-65
2021/10/14 04:43:26;;;;;;;;;;;19.80;33.70;;;;;;5049795;28;20089;-66
2021/10/14 04:45:53;;;;;;;62.20;12.85;;;19.80;33.90;;;;;;5049624;28;19988;-66
2021/10/14 04:48:20;;;;;;;63.10;12.45;;;19.70;34.80;;;;;;5048890;28;20101;-67
2021/10/14 04:50:46;;;;;;;59.88;12.32;;;19.60;34.90;;;;;;5048294;28;20081;-69
2021/10/14 04:53:13;;;;;;;79.88;14.10;;;19.60;35.40;;;;;;5052529;28;20155;-65
2021/10/14 04:55:39;;;;;;;75.38;13.25;;;19.60;35.20;;;;;;5049050;28;20073;-65
2021/10/14 04:58:06;;;;;;;70.57;13.52;;;19.60;35.30;;;;;;5047982;28;20509;-66
2021/10/14 05:00:32;;;;;;;75.70;14.38;;;19.70;34.80;;;;;;5048513;28;20162;-67
2021/10/14 05:02:58;;;;;;;;;;;19.70;34.70;;;;;;5032339;28;20075;-66
2021/10/14 05:05:24;;;;;;;76.82;14.65;;;19.60;36.00;;;;;;5048661;28;19980;-67
2021/10/14 05:07:51;;;;;;;;;;;19.50;36.00;;;;;;5049223;28;20605;-66
2021/10/14 05:10:17;;;;;;;68.32;14.05;;;19.50;36.00;;;;;;5048288;28;19999;-67
2021/10/14 05:12:43;;;;;;;;;;;19.50;35.90;;;;;;5048615;28;20125;-69
2021/10/14 05:15:11;;;;;;;80.95;15.88;;;19.40;36.20;;;;;;5048265;28;20074;-65
2021/10/14 05:17:37;;;;;;;114.57;17.75;;;19.30;36.20;;;;;;5048611;28;20108;-69
2021/10/14 05:20:06;;;;;;;95.38;16.38;;;19.40;34.30;;;;;;5049090;28;20523;-66
2021/10/14 05:22:32;;;;;;;85.63;15.60;;;19.50;34.70;;;;;;5032221;28;20085;-67
2021/10/14 05:24:59;;;;;;;95.97;16.45;;;19.40;34.90;;;;;;5031058;28;20085;-67
2021/10/14 05:27:25;;;;;;;;;;;19.30;35.80;;;;;;5050145;28;20105;-66
2021/10/14 05:29:51;;;;;;;124.05;21.05;;;19.20;35.90;;;;;;5067818;28;19962;-67
2021/10/14 05:32:17;;;;;;;;;;;19.20;36.10;;;;;;5052303;28;20152;-67
2021/10/14 05:34:43;;;;;;;97.60;17.80;;;19.20;35.90;;;;;;5052470;28;20415;-66
2021/10/14 05:37:10;;;;;;;133.35;19.65;;;19.20;36.00;;;;;;5051987;28;20108;-64
2021/10/14 05:39:36;;;;;;;;;;;19.30;36.30;;;;;;5051984;28;20618;-65
2021/10/14 05:42:02;;;;;;;107.40;18.58;;;19.20;36.50;;;;;;5035510;28;20435;-65
2021/10/14 05:44:29;;;;;;;108.80;18.85;;;19.00;37.00;;;;;;5050165;28;20485;-66
2021/10/14 05:46:55;;;;;;;;;;;19.00;37.30;;;;;;5051348;28;20112;-66
2021/10/14 05:49:21;;;;;;;113.32;19.23;;;18.90;37.90;;;;;;5051582;28;20419;-66
2021/10/14 05:51:47;;;;;;;;;;;18.90;37.50;;;;;;5050817;28;20132;-67
2021/10/14 05:54:13;;;;;;;106.47;19.10;;;18.90;37.90;;;;;;5051965;28;20000;-67
2021/10/14 05:56:40;;;;;;;;;;;18.80;37.50;;;;;;5052954;28;20095;-66
2021/10/14 05:59:06;;;;;;;94.97;17.02;;;18.80;37.30;;;;;;5051632;28;20331;-67
2021/10/14 06:01:32;;;;;;;;;;;18.80;37.50;;;;;;5053006;28;20601;-67
2021/10/14 06:03:58;;;;;;;87.72;16.63;;;18.80;37.60;;;;;;5051459;28;20526;-65
2021/10/14 06:06:24;;;;;;;;;;;18.70;37.20;;;;;;5051902;28;20087;-69
2021/10/14 06:08:51;;;;;;;86.88;17.55;;;18.70;37.30;;;;;;5051816;28;20337;-68
2021/10/14 06:11:18;;;;;;;84.82;17.50;;;18.80;37.20;;;;;;5034605;28;20073;-67
2021/10/14 06:13:44;;;;;;;106.22;20.00;;;18.70;37.40;;;;;;5052973;28;20081;-66
2021/10/14 06:16:10;;;;;;;;;;;18.70;37.70;;;;;;5035176;28;20069;-65
2021/10/14 06:18:40;;;;;;;114.40;19.35;;;18.90;37.30;;;;;;5051343;28;20422;-64
2021/10/14 06:21:07;;;;;;;83.43;19.10;;;18.90;37.00;;;;;;5051557;28;20071;-65
2021/10/14 06:23:33;;;;;;;104.60;20.40;;;18.90;37.10;;;;;;5050296;28;20085;-64
2021/10/14 06:26:00;;;;;;;124.03;19.05;;;18.80;37.50;;;;;;5050559;28;20557;-64
2021/10/14 06:28:26;;;;;;;140.35;21.13;;;18.90;38.80;;;;;;5050882;28;20161;-66
2021/10/14 06:30:53;;;;;;;111.38;19.23;;;18.90;38.00;;;;;;5049178;28;20077;-63
2021/10/14 06:33:20;;;;;;;95.07;19.15;;;18.90;39.20;;;;;;5050464;28;20574;-64
2021/10/14 06:35:46;;;;;;;112.05;20.25;;;18.90;39.10;;;;;;5050190;28;20148;-64
2021/10/14 06:38:12;;;;;;;;;;;18.90;38.20;;;;;;5033665;28;20076;-68
2021/10/14 06:40:39;;;;;;;103.05;19.90;;;18.90;38.10;;;;;;5049890;28;19973;-64
2021/10/14 06:43:05;;;;;;;117.93;21.60;;;18.90;38.20;;;;;;5033233;28;20086;-65
2021/10/14 06:45:31;;;;;;;;;;;18.90;38.30;;;;;;5049159;28;20084;-65
2021/10/14 06:47:57;;;;;;;118.28;22.35;;;18.90;38.30;;;;;;5050763;28;19981;-67
2021/10/14 06:50:23;;;;;;;;;;;18.90;38.30;;;;;;5033804;28;20077;-66
2021/10/14 06:52:50;;;;;;;129.50;21.80;;;18.90;38.20;;;;;;5049402;28;20019;-64
2021/10/14 06:55:16;;;;;;;;;;;18.70;38.10;;;;;;5054455;28;20092;-64
2021/10/14 06:57:42;;;;;;;117.50;22.30;;;18.60;38.40;;;;;;5052546;28;19959;-66
2021/10/14 07:00:09;;;;;;;;;;;18.30;38.20;;;;;;5049576;28;20101;-64
2021/10/14 07:02:35;;;;;;;117.28;22.65;;;18.40;39.00;;;;;;5049181;28;20414;-63
2021/10/14 07:05:02;;;;;;;;;;;18.20;39.30;;;;;;5049325;28;20086;-63
2021/10/14 07:07:29;;;;;;;143.40;27.10;;;18.30;39.90;;;;;;5048474;28;19995;-64
2021/10/14 07:09:55;;;;;;;124.97;24.33;;;18.30;39.30;;;;;;5048978;28;20859;-62
2021/10/14 07:12:27;;;;;;;;;;;18.30;40.10;;;;;;5050642;28;20096;-64
2021/10/14 07:14:54;;;;;;;122.45;25.50;;;18.40;39.70;;;;;;5049568;28;19977;-64
2021/10/14 07:17:21;;;;;;;150.85;28.02;;;18.40;39.70;;;;;;5048519;28;20428;-66
2021/10/14 07:19:48;;;;;;;141.02;25.67;;;18.30;39.60;;;;;;5048182;28;20156;-65
2021/10/14 07:22:14;;;;;;;;;;;18.30;39.70;;;;;;5049102;28;20442;-64
2021/10/14 07:24:40;;;;;;;132.98;25.48;;;18.20;39.60;;;;;;5052133;28;20442;-64
2021/10/14 07:27:10;;;;;;;151.70;28.42;;;18.20;39.60;;;;;;5050088;28;20528;-63
2021/10/14 07:29:36;;;;;;;163.95;27.83;;;18.30;39.50;;;;;;5048640;28;20077;-65
2021/10/14 07:32:06;;;;;;;146.85;28.75;;;17.70;59.50;;;;;;5048137;28;20231;-63
2021/10/14 07:34:34;;;;;;;146.60;27.90;;;18.30;39.50;;;;;;5032271;28;20132;-64
2021/10/14 07:37:00;;;;;;;147.48;28.48;;;18.30;39.70;;;;;;5048036;28;20219;-63
2021/10/14 07:39:27;;;;;;;162.60;29.10;;;18.20;39.70;;;;;;5031887;28;20153;-63
2021/10/14 07:41:54;;;;;;;143.98;29.65;;;18.20;39.80;;;;;;5031958;28;20085;-65
2021/10/14 07:44:20;;;;;;;158.60;30.23;;;18.20;40.10;;;;;;5048060;28;20084;-64
2021/10/14 07:46:47;;;;;;;189.82;33.63;;;18.20;40.50;;;;;;5047724;28;20117;-64
2021/10/14 07:49:16;;;;;;;160.20;30.52;;;18.10;39.60;;;;;;5047816;28;20081;-64
2021/10/14 07:51:42;;;;;;;171.98;30.63;;;18.20;39.90;;;;;;5048870;28;20481;-63
2021/10/14 07:54:09;;;;;;;181.80;33.17;;;18.20;40.40;;;;;;5049533;28;20069;-67
2021/10/14 07:56:35;;;;;;;;;;;18.10;40.40;;;;;;5049611;28;20088;-65
2021/10/14 07:59:01;;;;;;;179.45;36.10;;;18.10;40.20;;;;;;5048092;28;20442;-66
2021/10/14 08:01:28;;;;;;;174.20;37.13;;;18.00;40.60;;;;;;5048026;28;20066;-64
2021/10/14 08:03:54;;;;;;;;;;;18.00;40.90;;;;;;5049061;28;20101;-67
2021/10/14 08:06:20;;;;;;;177.00;37.97;;;17.90;40.30;;;;;;5048426;28;19992;-64
2021/10/14 08:08:46;;;;;;;;;;;17.90;40.80;;;;;;5048936;28;20077;-67
2021/10/14 08:11:13;;;;;;;181.35;39.72;;;;;;;;;;5047980;28;20388;-66
2021/10/14 08:13:39;;;;;;;211.10;43.83;;;17.80;39.20;;;;;;5048031;28;20152;-66
2021/10/14 08:16:06;;;;;;;171.18;41.03;;;17.80;39.70;;;;;;5049674;28;20058;-67
2021/10/14 08:18:33;;;;;;;193.98;41.83;;;17.80;40.10;;;;;;5047730;28;20073;-67
2021/10/14 08:21:00;;;;;;;169.15;37.08;;;17.80;40.50;;;;;;5048246;28;20085;-66
2021/10/14 08:23:28;;;;;;;183.32;38.47;;;17.80;40.60;;;;;;5048029;28;20442;-66
2021/10/14 08:25:55;;;;;;;174.95;38.38;;;17.70;41.00;;;;;;5047820;28;20085;-66
2021/10/14 08:28:26;;;;;;;180.75;37.65;;;17.80;41.20;;;;;;5049351;28;20073;-67
2021/10/14 08:30:53;;;;;;;198.25;37.60;;;17.80;41.20;;;;;;5047934;28;20091;-68
2021/10/14 08:33:19;;;;;;;198.30;39.20;;;17.80;41.40;;;;;;5048085;28;20559;-67
2021/10/14 08:35:46;;;;;;;210.05;39.10;;;17.80;41.60;;;;;;5047112;28;20117;-65
2021/10/14 08:38:13;;;;;;;182.00;39.97;;;17.70;41.60;;;;;;5049228;28;20115;-65
2021/10/14 08:40:40;;;;;;;173.60;39.90;;;17.70;42.30;;;;;;5049053;28;20161;-65
2021/10/14 08:43:14;;;;;;;163.55;36.65;;;17.60;41.60;;;;;;5047541;28;20081;-68
2021/10/14 08:45:43;;;;;;;176.55;39.88;;;17.60;42.10;;;;;;5047317;28;20548;-67
2021/10/14 08:48:09;;;;;;;198.85;41.85;;;17.60;43.10;;;;;;5048063;28;20112;-65
2021/10/14 08:50:39;;;;;;;182.90;39.40;;;17.50;42.20;;;;;;5048056;28;20069;-67
2021/10/14 08:53:06;;;;;;;200.48;42.30;;;17.50;42.30;;;;;;5046700;28;20101;-67
2021/10/14 08:55:38;;;;;;;201.95;43.47;;;17.50;42.70;;;;;;5046831;28;20098;-67
2021/10/14 08:58:08;;;;;;;186.65;42.03;;;17.50;42.40;;;;;;5031833;28;20100;-63
2021/10/14 09:00:36;;;;;;;185.13;40.70;;;17.50;42.30;;;;;;5047511;28;20070;-66
2021/10/14 09:03:24;;;;;;;200.73;41.95;;;17.50;42.50;;;;;;5032406;28;20100;-70
2021/10/14 09:05:50;;;;;;;192.00;43.42;;;17.50;42.90;;;;;;5050955;28;20085;-66
2021/10/14 09:08:31;;;;;;;;;;;17.40;43.10;;;;;;5051701;28;20083;-69
2021/10/14 09:11:05;;;;;;;172.73;42.88;;;17.40;43.10;;;;;;5050001;28;19957;-68
2021/10/14 09:13:31;;;;;;;180.55;40.65;;;17.40;43.10;;;;;;5049846;28;20092;-69
2021/10/14 09:16:17;;;;;;;;;;;17.30;43.00;;;;;;5033995;28;20080;-68
2021/10/14 09:18:43;;;;;;;165.45;42.40;;;17.40;43.10;;;;;;5051077;28;19969;-70
2021/10/14 09:21:30;;;;;;;181.05;42.70;;;17.30;43.40;;;;;;5050436;28;20520;-70
2021/10/14 09:24:00;;;;;;;196.40;46.20;;;17.20;43.60;;;;;;5051179;28;20123;-66
2021/10/14 09:26:30;;;;;;;169.10;42.67;;;17.20;43.40;;;;;;5052547;28;20081;-67
2021/10/14 09:29:09;;;;;;;146.98;40.25;;;17.10;43.60;;;;;;5050390;28;20072;-67
2021/10/14 09:32:03;;;;;;;148.88;40.85;;;17.10;43.50;;;;;;5049659;28;20499;-66
2021/10/14 09:34:32;;;;;;;148.45;39.55;;;17.10;43.00;;;;;;5051898;28;21170;-66
2021/10/14 09:37:01;;;;;;;138.40;38.35;;;17.10;42.90;;;;;;5050588;28;20140;-66
2021/10/14 09:39:28;;;;;;;145.88;39.40;;;17.10;43.00;;;;;;5033937;28;20482;-68
2021/10/14 09:41:57;;;;;;;135.75;38.00;;;17.10;43.00;;;;;;5050703;28;20155;-67
2021/10/14 09:44:23;;;;;;;157.85;40.03;;;17.10;43.00;;;;;;5049725;28;20139;-66
2021/10/14 09:46:56;;;;;;;168.57;41.30;;;17.00;43.20;;;;;;5033508;28;20511;-66
2021/10/14 09:49:30;;;;;;;169.50;41.85;;;16.90;43.40;;;;;;5066886;28;20525;-66
2021/10/14 09:52:02;;;;;;;129.40;39.67;;;16.90;43.40;;;;;;5051672;28;20112;-69
2021/10/14 09:54:31;;;;;;;147.70;42.22;;;16.90;43.10;;;;;;5050933;28;20089;-67
2021/10/14 09:56:59;;;;;;;169.30;43.25;;;16.80;43.90;;;;;;5051956;28;20094;-67
2021/10/14 09:59:25;;;;;;;129.15;39.85;;;16.80;43.90;;;;;;5049932;28;20090;-67
2021/10/14 10:01:56;;;;;;;157.68;44.60;;;16.90;44.70;;;;;;5050467;28;20084;-67
2021/10/14 10:04:26;;;;;;;152.57;44.97;;;16.90;44.00;;;;;;5050046;28;20461;-66
2021/10/14 10:06:55;;;;;;;171.10;47.67;;;16.80;43.80;;;;;;5050286;28;20076;-67
2021/10/14 10:09:25;;;;;;;165.68;45.08;;;16.80;43.90;;;;;;5050046;28;20073;-67
2021/10/14 10:11:54;;;;;;;138.88;43.97;;;16.70;44.30;;;;;;5050313;28;20069;-67
2021/10/14 10:14:22;;;;;;;161.27;44.33;;;16.70;44.20;;;;;;5048389;28;20084;-68
2021/10/14 10:17:06;;;;;;;160.00;45.42;;;16.60;44.50;;;;;;5032865;28;20532;-67
2021/10/14 10:19:42;;;;;;;171.32;47.83;;;16.60;45.60;;;;;;5049035;28;20534;-65
2021/10/14 10:22:10;;;;;;;171.75;47.58;;;16.60;45.30;;;;;;5050896;28;20222;-67
2021/10/14 10:24:37;;;;;;;161.68;46.70;;;16.50;45.40;;;;;;5051534;28;20095;-67
2021/10/14 10:27:06;;;;;;;160.00;47.70;;;16.50;45.80;;;;;;5050152;28;20171;-66
2021/10/14 10:29:38;;;;;;;169.50;45.63;;;16.60;45.50;;;;;;5049742;28;20093;-67
2021/10/14 10:32:05;;;;;;;158.85;45.20;;;16.60;45.10;;;;;;5049594;28;20097;-68
2021/10/14 10:34:41;;;;;;;150.45;46.83;;;16.50;45.50;;;;;;5050695;28;20083;-68
2021/10/14 10:37:22;;;;;;;162.50;49.03;;;16.50;45.00;;;;;;5050259;28;20096;-69
2021/10/14 10:40:13;;;;;;;171.23;49.97;;;16.50;45.50;;;;;;5033733;28;20077;-64
2021/10/14 10:43:07;;;;;;;166.80;48.60;;;16.50;45.60;;;;;;5037705;28;20561;-64
2021/10/14 10:45:43;;;;;;;155.68;48.78;;;16.50;45.60;;;;;;5049613;28;21095;-67
2021/10/14 10:48:10;;;;;;;161.27;48.73;;;16.40;45.80;;;;;;5049857;28;20069;-66
2021/10/14 10:50:55;;;;;;;146.50;45.60;;;16.30;45.60;;;;;;5049252;28;20330;-69
2021/10/14 10:53:48;;;;;;;152.15;45.75;;;16.30;45.40;;;;;;5049993;28;20096;-66
2021/10/14 10:56:29;;;;;;;150.35;43.72;;;16.20;45.50;;;;;;5049413;28;20547;-69
2021/10/14 10:58:56;;;;;;;119.70;43.80;;;16.30;45.30;;;;;;5048227;28;20451;-69
2021/10/14 11:01:23;;;;;;;134.02;40.05;;;16.40;44.90;;;;;;5049190;28;20073;-66
2021/10/14 11:03:51;;;;;;;121.93;39.75;;;16.40;44.50;;;;;;5049063;28;20104;-65
2021/10/14 11:06:18;;;;;;;124.93;37.63;;;16.40;44.20;;;;;;5048622;28;20073;-65
2021/10/14 11:08:45;;;;;;;115.78;36.90;;;16.30;43.40;;;;;;5049062;28;21097;-70
2021/10/14 11:11:13;;;;;;;;;;;16.30;43.40;;;;;;5033620;28;20494;-65
2021/10/14 11:13:42;;;;;;;108.13;33.92;;;16.20;43.00;;;;;;5048839;28;20354;-69
2021/10/14 11:16:13;;;;;;;94.07;29.50;;;16.30;42.70;;;;;;5049010;28;20099;-65
2021/10/14 11:18:43;;;;;;;92.68;27.27;;;16.20;42.60;;;;;;5048770;28;20081;-69
2021/10/14 11:21:13;;;;;;;107.45;28.10;;;16.30;42.70;;;;;;5064337;28;20073;-68
2021/10/14 11:23:42;;;;;;;97.95;25.42;;;16.20;41.90;;;;;;5048994;28;20528;-68
2021/10/14 11:26:35;;;;;;;81.22;26.17;;;16.30;41.40;;;;;;5047541;28;20532;-67
2021/10/14 11:29:05;;;;;;;92.68;27.13;;;16.30;41.80;;;;;;5050558;28;20119;-71
2021/10/14 11:31:36;;;;;;;103.35;27.10;;;16.20;42.50;;;;;;5049091;28;20126;-68
2021/10/14 11:34:10;;;;;;;87.65;27.00;;;16.10;43.00;;;;;;5048728;28;20073;-67
2021/10/14 11:36:38;;;;;;;78.78;25.02;;;16.20;42.90;;;;;;5049677;28;20102;-67
2021/10/14 11:39:10;;;;;;;71.82;24.60;;;16.20;43.00;;;;;;5048016;28;20431;-67
2021/10/14 11:41:38;;;;;;;79.80;23.13;;;16.30;43.00;;;;;;5031503;28;20109;-67
2021/10/14 11:44:08;;;;;;;82.00;24.67;;;16.30;42.80;;;;;;5049652;28;20164;-67
2021/10/14 11:46:38;;;;;;;91.50;25.92;;;16.30;43.00;;;;;;5047924;28;20151;-69
2021/10/14 11:49:07;;;;;;;84.68;25.10;;;16.20;42.90;;;;;;5048777;28;20119;-66
2021/10/14 11:51:34;;;;;;;89.68;22.83;;;16.10;43.00;;;;;;5032150;28;20082;-69
2021/10/14 11:54:07;;;;;;;75.45;23.27;;;16.10;42.90;;;;;;5032672;28;20090;-66
2021/10/14 11:57:04;;;;;;;80.72;23.23;;;16.00;42.80;;;;;;5047183;28;20530;-67
2021/10/14 11:59:32;;;;;;;79.30;21.88;;;16.00;42.50;;;;;;5027794;28;20100;-68
2021/10/14 12:02:08;;;;;;;74.35;20.15;;;16.00;42.50;;;;;;5048226;28;20503;-67
2021/10/14 12:04:47;;;;;;;73.50;20.63;;;16.00;42.50;;;;;;5049074;28;20160;-67
2021/10/14 12:07:25;;;;;;;73.93;22.15;;;15.80;42.80;;;;;;5047756;28;20160;-67
2021/10/14 12:09:53;;;;;;;74.30;21.75;;;15.70;43.10;;;;;;5047170;28;20127;-65
2021/10/14 12:12:25;;;;;;;71.97;22.23;;;15.70;43.00;;;;;;5047839;28;20101;-67
2021/10/14 12:15:07;;;;;;;75.45;22.67;;;15.70;43.20;;;;;;5030543;28;20123;-66
2021/10/14 12:17:44;;;;;;;77.90;20.85;;;15.80;43.40;;;;;;5047157;28;20074;-66
2021/10/14 12:20:18;;;;;;;74.00;21.83;;;15.80;43.00;;;;;;5030652;28;20474;-67
2021/10/14 12:22:47;;;;;;;88.80;24.08;;;15.80;43.20;;;;;;5047892;28;20515;-66
2021/10/14 12:25:48;;;;;;;79.65;22.52;;;15.80;43.00;;;;;;5048317;28;20085;-68
2021/10/14 12:28:24;;;;;;;72.68;23.00;;;15.80;43.40;;;;;;5047706;28;20125;-66
2021/10/14 12:30:50;;;;;;;73.18;22.85;;;15.70;43.30;;;;;;5047442;28;20108;-67
2021/10/14 12:33:18;;;;;;;80.50;22.80;;;15.60;43.70;;;;;;5047633;28;20180;-66
2021/10/14 12:36:00;;;;;;;92.13;26.25;;;15.60;44.10;;;;;;5064717;28;20176;-68
2021/10/14 12:38:42;;;;;;;99.47;25.48;;;15.50;44.20;;;;;;5051024;28;20061;-65
2021/10/14 12:41:15;;;;;;;89.57;26.83;;;15.60;43.90;;;;;;5051974;28;20073;-67
2021/10/14 12:44:09;;;;;;;87.95;25.75;;;15.60;43.90;;;;;;5051938;28;20447;-67
2021/10/14 12:51:50;;;;;;;85.57;25.95;;;15.50;44.50;;;;;;5053070;28;20070;-67